createdAt,value
2023-02-28T00:01:16.456Z,6.68
2023-02-28T00:03:44.453Z,9.52
2023-02-28T00:06:12.542Z,13.48
2023-02-28T00:08:41.197Z,8.55
2023-02-28T00:11:11.697Z,9.80
2023-02-28T00:13:41.692Z,11.00
2023-02-28T00:16:11.329Z,9.32
2023-02-28T00:18:40.890Z,8.88
2023-02-28T00:21:09.628Z,9.70
2023-02-28T00:23:37.748Z,15.68
2023-02-28T00:26:06.024Z,11.50
2023-02-28T00:28:33.860Z,9.20
2023-02-28T00:31:02.079Z,10.95
2023-02-28T00:33:30.968Z,9.25
2023-02-28T00:36:09.554Z,11.52
2023-02-28T00:38:40.899Z,10.85
2023-02-28T00:41:09.606Z,12.38
2023-02-28T00:43:39.244Z,8.60
2023-02-28T00:46:07.541Z,8.07
2023-02-28T00:48:35.512Z,8.70
2023-02-28T00:51:03.692Z,8.77
2023-02-28T00:53:34.694Z,8.35
2023-02-28T00:56:02.736Z,10.05
2023-02-28T00:58:31.366Z,8.43
2023-02-28T01:00:59.288Z,11.35
2023-02-28T01:03:27.117Z,8.40
2023-02-28T01:05:54.959Z,13.38
2023-02-28T01:08:22.904Z,9.40
2023-02-28T01:10:53.587Z,9.63
2023-02-28T01:13:21.598Z,8.63
2023-02-28T01:15:53.876Z,10.85
2023-02-28T01:18:22.656Z,11.40
2023-02-28T01:20:52.677Z,9.13
2023-02-28T01:23:22.582Z,9.52
2023-02-28T01:25:50.740Z,10.30
2023-02-28T01:28:19.924Z,12.38
2023-02-28T01:30:50.758Z,9.68
2023-02-28T01:33:18.827Z,10.93
2023-02-28T01:35:46.641Z,11.95
2023-02-28T01:38:22.025Z,8.52
2023-02-28T01:40:51.555Z,8.45
2023-02-28T01:43:24.020Z,9.75
2023-02-28T01:45:52.401Z,8.80
2023-02-28T01:48:22.959Z,11.20
2023-02-28T01:50:51.263Z,13.43
2023-02-28T01:53:23.654Z,11.85
2023-02-28T01:55:54.404Z,11.05
2023-02-28T01:58:24.197Z,10.85
2023-02-28T02:00:52.773Z,9.55
2023-02-28T02:03:22.670Z,9.80
2023-02-28T02:05:50.561Z,8.65
2023-02-28T02:08:21.483Z,10.65
2023-02-28T02:10:54.343Z,10.45
2023-02-28T02:13:44.230Z,12.43
2023-02-28T02:16:29.261Z,11.98
2023-02-28T02:19:02.671Z,9.25
2023-02-28T02:22:15.152Z,8.18
2023-02-28T02:25:15.127Z,8.30
2023-02-28T02:28:00.939Z,11.57
2023-02-28T02:31:08.084Z,22.77
2023-02-28T02:34:03.345Z,8.40
2023-02-28T02:36:35.663Z,7.78
2023-02-28T02:39:09.409Z,8.02
2023-02-28T02:41:40.430Z,8.38
2023-02-28T02:44:14.066Z,10.63
2023-02-28T02:46:44.498Z,6.57
2023-02-28T02:49:22.330Z,11.00
2023-02-28T02:51:51.524Z,10.93
2023-02-28T02:54:22.904Z,6.95
2023-02-28T02:56:52.377Z,4.68
2023-02-28T02:59:24.811Z,11.80
2023-02-28T03:01:55.217Z,7.68
2023-02-28T03:04:27.038Z,10.60
2023-02-28T03:06:56.088Z,6.32
2023-02-28T03:09:24.109Z,7.63
2023-02-28T03:11:53.881Z,10.57
2023-02-28T03:14:33.362Z,13.23
2023-02-28T03:17:30.511Z,9.43
2023-02-28T03:20:08.431Z,14.43
2023-02-28T03:22:54.278Z,7.03
2023-02-28T03:25:31.627Z,7.20
2023-02-28T03:28:05.520Z,12.85
2023-02-28T03:30:40.143Z,6.72
2023-02-28T03:33:13.701Z,6.72
2023-02-28T03:35:47.855Z,11.90
2023-02-28T03:38:20.331Z,7.15
2023-02-28T03:40:52.099Z,9.20
2023-02-28T03:43:24.534Z,7.88
2023-02-28T03:45:54.071Z,6.90
2023-02-28T03:48:26.026Z,7.50
2023-02-28T03:50:57.683Z,10.13
2023-02-28T03:53:29.334Z,12.55
2023-02-28T03:56:03.419Z,9.55
2023-02-28T03:58:37.336Z,9.10
2023-02-28T04:01:09.936Z,10.05
2023-02-28T04:03:38.763Z,11.15
2023-02-28T04:06:15.093Z,9.27
2023-02-28T04:08:42.910Z,8.95
2023-02-28T04:11:23.035Z,8.23
2023-02-28T04:13:50.892Z,10.50
2023-02-28T04:16:33.527Z,12.10
2023-02-28T04:19:03.992Z,8.70
2023-02-28T04:21:34.194Z,12.93
2023-02-28T04:24:02.417Z,11.77
2023-02-28T04:26:31.828Z,7.00
2023-02-28T04:29:00.093Z,7.60
2023-02-28T04:31:28.631Z,6.70
2023-02-28T04:33:57.066Z,10.38
2023-02-28T04:36:24.973Z,10.70
2023-02-28T04:38:54.492Z,5.40
2023-02-28T04:41:24.313Z,6.43
2023-02-28T04:43:53.796Z,9.07
2023-02-28T04:46:21.983Z,10.10
2023-02-28T04:48:50.222Z,7.68
2023-02-28T04:51:19.978Z,8.13
2023-02-28T04:53:48.781Z,9.65
2023-02-28T04:56:19.368Z,8.20
2023-02-28T04:58:47.648Z,12.48
2023-02-28T05:01:22.549Z,12.73
2023-02-28T05:03:52.232Z,8.75
2023-02-28T05:06:22.126Z,26.40
2023-02-28T05:08:50.033Z,9.20
2023-02-28T05:11:22.504Z,8.65
2023-02-28T05:13:50.815Z,6.45
2023-02-28T05:16:19.655Z,8.52
2023-02-28T05:18:47.994Z,14.20
2023-02-28T05:21:29.310Z,9.25
2023-02-28T05:23:58.537Z,5.70
2023-02-28T05:26:29.029Z,15.02
2023-02-28T05:28:57.531Z,8.07
2023-02-28T05:31:25.959Z,5.70
2023-02-28T05:33:53.875Z,10.05
2023-02-28T05:36:21.946Z,9.88
2023-02-28T05:38:50.704Z,12.57
2023-02-28T05:41:20.304Z,9.23
2023-02-28T05:43:50.409Z,9.20
2023-02-28T05:46:18.619Z,9.85
2023-02-28T05:48:49.666Z,5.53
2023-02-28T05:51:17.877Z,7.65
2023-02-28T05:53:45.864Z,8.48
2023-02-28T05:56:13.828Z,6.10
2023-02-28T05:58:41.627Z,7.47
2023-02-28T06:01:26.359Z,10.65
2023-02-28T06:03:54.189Z,13.13
2023-02-28T06:06:22.094Z,7.68
2023-02-28T06:08:49.909Z,10.18
2023-02-28T06:11:17.696Z,11.48
2023-02-28T06:13:45.646Z,12.40
2023-02-28T06:16:13.991Z,10.70
2023-02-28T06:18:43.106Z,10.35
2023-02-28T06:21:10.927Z,12.73
2023-02-28T06:23:38.735Z,10.30
2023-02-28T06:26:07.118Z,8.98
2023-02-28T06:28:34.902Z,14.55
2023-02-28T06:31:08.701Z,9.68
2023-02-28T06:33:37.150Z,12.70
2023-02-28T06:36:07.560Z,14.90
2023-02-28T06:38:36.109Z,16.58
2023-02-28T06:41:04.769Z,12.93
2023-02-28T06:43:35.177Z,13.98
2023-02-28T06:46:06.268Z,13.07
2023-02-28T06:48:35.973Z,12.32
2023-02-28T06:51:07.354Z,16.73
2023-02-28T06:53:35.438Z,16.00
2023-02-28T06:56:07.578Z,18.30
2023-02-28T06:58:35.791Z,22.13
2023-02-28T07:01:04.344Z,15.00
2023-02-28T07:03:34.499Z,16.77
2023-02-28T07:06:02.766Z,19.63
2023-02-28T07:08:33.850Z,19.02
2023-02-28T07:11:01.895Z,18.38
2023-02-28T07:13:29.875Z,19.58
2023-02-28T07:15:58.611Z,14.52
2023-02-28T07:18:27.404Z,14.38
2023-02-28T07:20:55.564Z,15.35
2023-02-28T07:23:24.119Z,16.05
2023-02-28T07:25:53.444Z,15.57
2023-02-28T07:28:21.282Z,15.93
2023-02-28T07:30:49.897Z,14.45
2023-02-28T07:33:18.143Z,26.83
2023-02-28T07:35:46.029Z,23.58
2023-02-28T07:38:14.697Z,20.52
2023-02-28T07:40:42.904Z,16.73
2023-02-28T07:43:12.073Z,16.52
2023-02-28T07:45:40.058Z,21.13
2023-02-28T07:48:10.950Z,14.38
2023-02-28T07:50:38.853Z,12.25
2023-02-28T07:53:06.744Z,10.07
2023-02-28T07:55:34.661Z,15.52
2023-02-28T07:58:02.492Z,15.02
2023-02-28T08:00:33.065Z,21.85
2023-02-28T08:03:01.043Z,15.20
2023-02-28T08:05:28.852Z,17.17
2023-02-28T08:07:56.701Z,13.27
2023-02-28T08:10:24.828Z,15.20
2023-02-28T08:12:52.610Z,13.02
2023-02-28T08:15:20.581Z,10.70
2023-02-28T08:17:49.702Z,15.55
2023-02-28T08:20:17.531Z,11.93
2023-02-28T08:22:46.035Z,18.45
2023-02-28T08:25:14.048Z,13.18
2023-02-28T08:27:41.855Z,20.00
2023-02-28T08:30:12.558Z,17.73
2023-02-28T08:32:40.904Z,11.70
2023-02-28T08:35:11.384Z,17.33
2023-02-28T08:37:39.335Z,13.85
2023-02-28T08:40:08.629Z,11.25
2023-02-28T08:42:37.062Z,19.23
2023-02-28T08:45:05.535Z,15.32
2023-02-28T08:47:33.816Z,11.02
2023-02-28T08:50:01.773Z,16.70
2023-02-28T08:52:31.000Z,16.30
2023-02-28T08:54:59.070Z,16.55
2023-02-28T08:57:28.407Z,14.55
2023-02-28T08:59:56.477Z,13.98
2023-02-28T09:02:24.395Z,11.45
2023-02-28T09:04:52.266Z,11.60
2023-02-28T09:07:20.392Z,11.40
2023-02-28T09:09:58.929Z,12.25
2023-02-28T09:12:28.677Z,9.35
2023-02-28T09:14:58.313Z,8.95
2023-02-28T09:17:30.803Z,14.10
2023-02-28T09:19:59.239Z,10.13
2023-02-28T09:22:27.248Z,13.50
2023-02-28T09:24:56.438Z,12.32
2023-02-28T09:27:24.229Z,11.98
2023-02-28T09:29:52.252Z,8.00
2023-02-28T09:32:20.197Z,7.13
2023-02-28T09:34:48.073Z,11.38
2023-02-28T09:37:15.884Z,10.73
2023-02-28T09:39:43.869Z,8.35
2023-02-28T09:42:23.136Z,7.97
2023-02-28T09:44:52.387Z,10.65
2023-02-28T09:47:31.419Z,7.50
2023-02-28T09:50:04.967Z,9.80
2023-02-28T09:52:34.999Z,8.82
2023-02-28T09:55:18.946Z,13.43
2023-02-28T09:57:49.038Z,8.82
2023-02-28T10:00:20.573Z,7.10
2023-02-28T10:03:06.141Z,6.80
2023-02-28T10:08:13.433Z,7.90
2023-02-28T10:10:43.546Z,12.40
2023-02-28T10:13:21.598Z,8.02
2023-02-28T10:15:54.408Z,15.73
2023-02-28T10:18:27.781Z,12.85
2023-02-28T10:20:57.680Z,16.25
2023-02-28T10:23:30.265Z,20.40
2023-02-28T10:26:03.429Z,9.80
2023-02-28T10:28:33.054Z,5.60
2023-02-28T10:31:01.235Z,26.20
2023-02-28T10:33:32.665Z,15.50
2023-02-28T10:36:01.261Z,11.98
2023-02-28T10:38:34.412Z,9.73
2023-02-28T10:41:06.766Z,19.30
2023-02-28T10:43:36.605Z,13.98
2023-02-28T10:46:07.064Z,12.73
2023-02-28T10:48:37.963Z,9.80
2023-02-28T10:51:08.899Z,18.05
2023-02-28T10:53:57.578Z,12.02
2023-02-28T10:56:29.278Z,10.85
2023-02-28T10:59:00.882Z,11.73
2023-02-28T11:01:38.999Z,13.07
2023-02-28T11:04:20.060Z,12.40
2023-02-28T11:06:48.568Z,40.70
2023-02-28T11:09:32.409Z,8.25
2023-02-28T11:12:00.914Z,12.98
2023-02-28T11:14:32.806Z,11.48
2023-02-28T11:17:13.324Z,9.35
2023-02-28T11:19:46.293Z,18.77
2023-02-28T11:22:21.396Z,16.52
2023-02-28T11:24:52.385Z,8.48
2023-02-28T11:27:49.134Z,15.85
2023-02-28T11:30:31.539Z,19.00
2023-02-28T11:32:59.872Z,17.55
2023-02-28T11:35:32.278Z,12.98
2023-02-28T11:38:00.549Z,20.27
2023-02-28T11:40:38.192Z,9.82
2023-02-28T11:43:14.504Z,15.75
2023-02-28T11:45:53.894Z,7.72
2023-02-28T11:48:25.232Z,11.68
2023-02-28T11:51:02.277Z,20.60
2023-02-28T11:54:03.845Z,13.77
2023-02-28T11:56:38.101Z,12.68
2023-02-28T11:59:33.293Z,16.20
2023-02-28T12:02:15.580Z,11.85
2023-02-28T12:04:56.849Z,14.45
2023-02-28T12:07:37.630Z,11.45
2023-02-28T12:10:13.196Z,10.48
2023-02-28T12:12:47.736Z,18.33
2023-02-28T12:15:48.682Z,11.73
2023-02-28T12:18:37.315Z,12.32
2023-02-28T12:21:13.654Z,15.43
2023-02-28T12:24:04.350Z,9.13
2023-02-28T12:26:39.415Z,15.30
2023-02-28T12:29:15.983Z,15.70
2023-02-28T12:31:49.695Z,12.85
2023-02-28T12:34:24.076Z,18.13
2023-02-28T12:36:55.765Z,10.60
2023-02-28T12:39:28.178Z,11.57
2023-02-28T12:42:00.267Z,11.68
2023-02-28T12:44:32.775Z,12.40
2023-02-28T12:47:05.745Z,14.50
2023-02-28T12:49:39.120Z,11.68
2023-02-28T12:52:11.953Z,12.90
2023-02-28T12:54:49.150Z,12.52
2023-02-28T12:57:25.471Z,14.25
2023-02-28T12:59:56.089Z,13.18
2023-02-28T13:02:46.259Z,12.05
2023-02-28T13:05:52.123Z,16.67
2023-02-28T13:08:44.943Z,14.75
2023-02-28T13:11:26.318Z,17.55
2023-02-28T13:14:00.950Z,20.67
2023-02-28T13:16:29.062Z,15.98
2023-02-28T13:19:12.564Z,16.77
2023-02-28T13:21:46.493Z,17.13
2023-02-28T13:24:47.641Z,16.60
2023-02-28T13:27:34.888Z,14.82
2023-02-28T13:30:03.580Z,13.88
2023-02-28T13:32:44.357Z,23.15
2023-02-28T13:35:37.655Z,15.95
2023-02-28T13:38:35.329Z,11.73
2023-02-28T13:41:40.949Z,15.82
2023-02-28T13:44:11.295Z,19.23
2023-02-28T13:47:17.674Z,11.98
2023-02-28T13:49:45.967Z,17.10
2023-02-28T13:52:20.277Z,15.90
2023-02-28T13:55:24.223Z,16.15
2023-02-28T13:58:07.624Z,16.70
2023-02-28T14:00:50.179Z,13.80
2023-02-28T14:03:41.024Z,21.60
2023-02-28T14:06:24.216Z,14.15
2023-02-28T14:08:58.002Z,14.82
2023-02-28T14:11:32.214Z,14.23
2023-02-28T14:14:00.238Z,18.77
2023-02-28T14:16:31.091Z,12.88
2023-02-28T14:19:04.529Z,14.15
2023-02-28T14:21:35.728Z,13.00
2023-02-28T14:24:24.571Z,10.20
2023-02-28T14:27:22.638Z,16.27
2023-02-28T14:30:23.381Z,13.95
2023-02-28T14:33:00.548Z,15.60
2023-02-28T14:35:45.673Z,16.27
2023-02-28T14:38:22.267Z,11.05
2023-02-28T14:40:54.767Z,25.27
2023-02-28T14:43:25.610Z,14.10
2023-02-28T14:45:56.521Z,11.32
2023-02-28T14:48:27.871Z,16.75
2023-02-28T14:50:58.600Z,15.38
2023-02-28T14:53:30.174Z,18.00
2023-02-28T14:55:58.282Z,14.50
2023-02-28T14:58:29.455Z,16.08
2023-02-28T15:01:00.166Z,16.17
2023-02-28T15:03:33.403Z,14.80
2023-02-28T15:06:03.089Z,23.67
2023-02-28T15:08:36.051Z,26.77
2023-02-28T15:11:07.051Z,14.68
2023-02-28T15:13:39.549Z,20.27
2023-02-28T15:16:12.272Z,14.48
2023-02-28T15:18:49.067Z,17.35
2023-02-28T15:21:19.510Z,15.60
2023-02-28T15:23:51.229Z,16.98
2023-02-28T15:26:22.934Z,18.25
2023-02-28T15:28:54.749Z,15.35
2023-02-28T15:31:28.664Z,14.95
2023-02-28T15:33:58.490Z,15.00
2023-02-28T15:36:29.611Z,17.98
2023-02-28T15:39:01.532Z,19.63
2023-02-28T15:41:40.136Z,18.50
2023-02-28T15:44:27.673Z,15.15
2023-02-28T15:47:02.260Z,10.90
2023-02-28T15:49:33.522Z,31.95
2023-02-28T15:52:05.415Z,20.23
2023-02-28T15:54:36.928Z,23.75
2023-02-28T15:57:09.380Z,19.75
2023-02-28T15:59:39.078Z,19.17
2023-02-28T16:02:19.004Z,16.23
2023-02-28T16:05:02.122Z,29.67
2023-02-28T16:07:30.963Z,19.20
2023-02-28T16:09:58.902Z,19.45
2023-02-28T16:12:31.172Z,16.05
2023-02-28T16:15:03.883Z,16.55
2023-02-28T16:17:35.537Z,21.00
2023-02-28T16:20:07.753Z,23.83
2023-02-28T16:22:36.379Z,14.95
2023-02-28T16:25:05.235Z,20.77
2023-02-28T16:27:39.242Z,21.40
2023-02-28T16:30:15.460Z,22.67
2023-02-28T16:32:44.840Z,23.02
2023-02-28T16:35:15.001Z,21.83
2023-02-28T16:37:42.999Z,17.08
2023-02-28T16:40:16.961Z,22.50
2023-02-28T16:42:46.551Z,21.65
2023-02-28T16:45:21.757Z,24.92
2023-02-28T16:50:20.268Z,23.30
2023-02-28T16:52:48.869Z,31.15
2023-02-28T16:55:17.301Z,23.33
2023-02-28T16:57:46.454Z,21.05
2023-02-28T17:00:15.894Z,21.05
2023-02-28T17:02:45.256Z,26.38
2023-02-28T17:05:14.223Z,33.45
2023-02-28T17:07:43.037Z,28.48
2023-02-28T17:10:17.433Z,26.00
2023-02-28T17:12:45.361Z,25.50
2023-02-28T17:15:14.267Z,23.00
2023-02-28T17:17:42.940Z,24.50
2023-02-28T17:20:15.478Z,32.03
2023-02-28T17:22:43.334Z,28.23
2023-02-28T17:25:12.465Z,24.30
2023-02-28T17:27:40.501Z,28.95
2023-02-28T17:30:17.349Z,28.67
2023-02-28T17:32:45.408Z,24.95
2023-02-28T17:35:15.131Z,29.23
2023-02-28T17:37:43.811Z,23.40
2023-02-28T17:40:16.567Z,33.25
2023-02-28T17:42:44.916Z,32.50
2023-02-28T17:45:13.401Z,34.88
2023-02-28T17:47:41.543Z,26.48
2023-02-28T17:50:16.538Z,26.80
2023-02-28T17:52:44.432Z,25.08
2023-02-28T17:55:13.207Z,22.65
2023-02-28T17:57:42.690Z,33.03
2023-02-28T18:00:14.483Z,26.10
2023-02-28T18:02:43.471Z,33.47
2023-02-28T18:05:15.204Z,27.27
2023-02-28T18:07:43.496Z,25.30
2023-02-28T18:10:20.330Z,22.20
2023-02-28T18:12:49.201Z,23.48
2023-02-28T18:15:17.743Z,28.27
2023-02-28T18:17:45.542Z,26.27
2023-02-28T18:20:14.928Z,30.38
2023-02-28T18:22:43.422Z,27.33
2023-02-28T18:25:16.876Z,30.50
2023-02-28T18:27:53.910Z,39.67
2023-02-28T18:30:22.093Z,32.95
2023-02-28T18:32:49.876Z,26.42
2023-02-28T18:35:34.488Z,28.80
2023-02-28T18:38:04.447Z,30.33
2023-02-28T18:40:32.811Z,31.90
2023-02-28T18:43:00.781Z,30.05
2023-02-28T18:45:28.907Z,29.77
2023-02-28T18:47:56.843Z,25.95
2023-02-28T18:50:26.220Z,28.20
2023-02-28T18:52:54.019Z,25.63
2023-02-28T18:55:22.885Z,34.53
2023-02-28T18:57:51.140Z,25.23
2023-02-28T19:00:22.404Z,29.80
2023-02-28T19:02:51.087Z,28.88
2023-02-28T19:05:19.747Z,34.10
2023-02-28T19:07:49.055Z,31.70
2023-02-28T19:10:17.925Z,32.40
2023-02-28T19:12:45.707Z,34.03
2023-02-28T19:15:13.687Z,31.08
2023-02-28T19:17:41.989Z,32.55
2023-02-28T19:20:11.113Z,34.67
2023-02-28T19:22:39.270Z,39.65
2023-02-28T19:25:09.513Z,27.83
2023-02-28T19:27:37.665Z,32.17
2023-02-28T19:30:06.453Z,31.75
2023-02-28T19:32:34.975Z,33.10
2023-02-28T19:35:04.163Z,27.83
2023-02-28T19:37:31.962Z,32.90
2023-02-28T19:39:59.774Z,39.70
2023-02-28T19:42:33.112Z,30.98
2023-02-28T19:45:00.935Z,31.20
2023-02-28T19:47:30.653Z,29.98
2023-02-28T19:49:58.816Z,28.05
2023-02-28T19:52:27.014Z,35.35
2023-02-28T19:54:54.871Z,34.25
2023-02-28T19:57:22.644Z,28.13
2023-02-28T19:59:52.102Z,28.73
2023-02-28T20:02:21.846Z,26.00
2023-02-28T20:04:50.826Z,32.92
2023-02-28T20:07:21.124Z,29.25
2023-02-28T20:09:49.366Z,33.47
2023-02-28T20:12:24.162Z,31.73
2023-02-28T20:14:56.137Z,33.20
2023-02-28T20:17:24.866Z,35.83
2023-02-28T20:19:52.786Z,36.25
2023-02-28T20:22:20.556Z,36.83
2023-02-28T20:24:49.087Z,40.63
2023-02-28T20:27:17.347Z,30.27
2023-02-28T20:29:45.145Z,36.17
2023-02-28T20:32:14.476Z,35.47
2023-02-28T20:34:43.806Z,29.17
2023-02-28T20:37:12.090Z,32.30
2023-02-28T20:39:39.957Z,38.72
2023-02-28T20:42:07.772Z,32.80
2023-02-28T20:44:35.544Z,36.20
2023-02-28T20:47:03.739Z,45.08
2023-02-28T20:49:32.883Z,34.97
2023-02-28T20:52:00.669Z,35.40
2023-02-28T20:54:30.278Z,33.38
2023-02-28T20:56:58.356Z,29.98
2023-02-28T20:59:26.338Z,41.25
2023-02-28T21:01:56.190Z,29.92
2023-02-28T21:04:24.399Z,37.50
2023-02-28T21:06:53.636Z,45.05
2023-02-28T21:09:21.440Z,35.67
2023-02-28T21:11:49.712Z,38.28
2023-02-28T21:14:18.731Z,29.13
2023-02-28T21:16:47.340Z,32.20
2023-02-28T21:19:15.746Z,28.98
2023-02-28T21:21:45.319Z,35.03
2023-02-28T21:24:15.809Z,35.67
2023-02-28T21:26:45.295Z,31.48
2023-02-28T21:29:14.057Z,36.53
2023-02-28T21:31:42.250Z,35.47
2023-02-28T21:34:12.471Z,33.28
2023-02-28T21:36:45.468Z,28.75
2023-02-28T21:39:17.841Z,35.95
2023-02-28T21:41:46.475Z,35.90
2023-02-28T21:44:18.215Z,35.70
2023-02-28T21:46:47.084Z,33.55
2023-02-28T21:49:15.582Z,35.95
2023-02-28T21:51:43.668Z,45.42
2023-02-28T21:54:11.826Z,31.85
2023-02-28T21:56:41.672Z,36.13
2023-02-28T21:59:09.693Z,34.30
2023-02-28T22:01:40.508Z,35.53
2023-02-28T22:04:10.327Z,36.53
2023-02-28T22:06:40.052Z,36.47
2023-02-28T22:09:09.918Z,34.55
2023-02-28T22:11:40.447Z,30.65
2023-02-28T22:14:12.341Z,34.72
2023-02-28T22:16:54.136Z,36.25
2023-02-28T22:19:23.734Z,40.53
2023-02-28T22:21:53.673Z,31.60
2023-02-28T22:24:24.252Z,32.25
2023-02-28T22:26:54.094Z,34.72
2023-02-28T22:29:22.234Z,37.17
2023-02-28T22:31:50.251Z,43.72
2023-02-28T22:34:18.117Z,35.95
2023-02-28T22:36:45.886Z,43.85
2023-02-28T22:39:13.859Z,45.50
2023-02-28T22:41:41.756Z,45.65
2023-02-28T22:44:12.154Z,45.50
2023-02-28T22:46:40.227Z,39.83
2023-02-28T22:49:08.063Z,41.25
2023-02-28T22:51:36.122Z,38.70
2023-02-28T22:54:04.634Z,37.42
2023-02-28T22:56:32.917Z,40.55
2023-02-28T22:59:01.871Z,41.55
2023-02-28T23:01:35.378Z,45.45
2023-02-28T23:04:03.865Z,41.33
2023-02-28T23:06:33.614Z,34.85
2023-02-28T23:09:04.263Z,34.85
2023-02-28T23:11:34.526Z,34.80
2023-02-28T23:14:02.935Z,33.92
2023-02-28T23:16:34.141Z,39.42
2023-02-28T23:19:05.131Z,39.20
2023-02-28T23:21:33.497Z,36.95
2023-02-28T23:24:03.604Z,30.90
2023-02-28T23:26:32.824Z,41.08
2023-02-28T23:29:01.207Z,34.50
2023-02-28T23:31:29.068Z,36.95
2023-02-28T23:33:59.038Z,34.95
2023-02-28T23:36:26.996Z,34.53
2023-02-28T23:38:54.846Z,32.55
2023-02-28T23:41:23.723Z,36.70
2023-02-28T23:43:53.958Z,33.45
2023-02-28T23:46:22.969Z,30.38
2023-02-28T23:48:51.115Z,37.08
2023-02-28T23:51:21.931Z,32.97
2023-02-28T23:53:51.076Z,34.45
2023-02-28T23:56:21.073Z,35.50
2023-02-28T23:58:49.548Z,37.83
